Kezdőlap
METAR-TAF:

METAR-TAF

Repülőterek :

Hof, Németország

földrajzi szélesség: 50-19N, földrajzi hosszúság: 011-53E, magasság: 567 m

Jelenlegi meteorológiai megfigyelések

A jelentés 49 perccel ezelõtt készült, 18:50 UTC
Nyugat-délnyugati szél 11 kt
Hőmérséklet 2°C
Páratartalom 75%
Légköri nyomás 1020 hPa
Látótávolság 10 km, vagy több
Borult 4800 lábon

METAR: EDQM 191850Z 25011KT 9999 OVC048 02/M02 Q1020

Idő: 20:39 (19:39 UTC)

Előrejelzés

A jelentés 2 órával és 39 perccel ezelõtt készült, 17:00 UTC
Az előrejelzés 19-én 18 óra UTC és 20-én 03 óra UTC között érvényes
Nyugati szél 11 kt
Látótávolság 10 km, vagy több
felhőtlen 1500 m magasságban, és nincs gomolyfelhõ
19-én 19 óra UTC és 19-én 21 óra UTC között fokozatosan kialakuló
Nyugat-délnyugati szél 6 kt

TAF: EDQM 191700Z 1918/2003 27011KT CAVOK BECMG 1919/1921 24006KT

Meteorológiai megfigyelések és előrejelzések több, mint 4000 repülőtéren (METAR és TAF jelentéseket).

A térképen piros és sárga pontok jelzik az elérhető meteorológiai állomásokat.

Mozgassa az egeret a pont fölött, hogy megjelenjen az állomás neve.

Azután kattintson az időjárási megfigyelések és előrejelzések megtekintéséhez.

A térkép megváltoztatása: kattintson a fekete keresztel jelölt zöld gombra ráközelítéshez, a vonallal jelölt zöld gombra távolításhoz, vagy a zöld nyilakra a szomszédos térképek eléréséhez.


METAR-TAF: